sensor_id;sensor_type;location;lat;lon;timestamp;P1;durP1;ratioP1;P2;durP2;ratioP2
77802;SDS011;66993;48.256;16.422;2023-07-16T00:04:42;7.4;;;4.5;;
77802;SDS011;66993;48.256;16.422;2023-07-16T00:09:44;9.3;;;5.0;;
77802;SDS011;66993;48.256;16.422;2023-07-16T00:14:47;9.4;;;5.0;;
77802;SDS011;66993;48.256;16.422;2023-07-16T00:19:46;8.3;;;5.0;;
77802;SDS011;66993;48.256;16.422;2023-07-16T00:24:48;9.2;;;5.4;;
77802;SDS011;66993;48.256;16.422;2023-07-16T00:29:49;7.8;;;5.1;;
77802;SDS011;66993;48.256;16.422;2023-07-16T00:34:50;8.4;;;5.1;;
77802;SDS011;66993;48.256;16.422;2023-07-16T00:39:51;7.7;;;5.4;;
77802;SDS011;66993;48.256;16.422;2023-07-16T00:44:53;9.9;;;5.3;;
77802;SDS011;66993;48.256;16.422;2023-07-16T00:49:54;9.5;;;5.6;;
77802;SDS011;66993;48.256;16.422;2023-07-16T00:54:55;9.1;;;5.0;;
77802;SDS011;66993;48.256;16.422;2023-07-16T00:59:56;8.4;;;5.6;;
77802;SDS011;66993;48.256;16.422;2023-07-16T01:04:58;9.1;;;5.3;;
77802;SDS011;66993;48.256;16.422;2023-07-16T01:09:59;10.2;;;5.6;;
77802;SDS011;66993;48.256;16.422;2023-07-16T01:15:00;8.8;;;5.6;;
77802;SDS011;66993;48.256;16.422;2023-07-16T01:20:01;8.6;;;5.3;;
77802;SDS011;66993;48.256;16.422;2023-07-16T01:25:07;10.6;;;5.6;;
77802;SDS011;66993;48.256;16.422;2023-07-16T01:30:05;9.7;;;5.6;;
77802;SDS011;66993;48.256;16.422;2023-07-16T01:35:06;8.3;;;5.7;;
77802;SDS011;66993;48.256;16.422;2023-07-16T01:40:07;7.7;;;5.6;;
77802;SDS011;66993;48.256;16.422;2023-07-16T01:45:09;7.9;;;6.0;;
77802;SDS011;66993;48.256;16.422;2023-07-16T01:50:09;11.1;;;5.9;;
77802;SDS011;66993;48.256;16.422;2023-07-16T01:55:11;9.3;;;6.1;;
77802;SDS011;66993;48.256;16.422;2023-07-16T02:00:12;9.0;;;6.3;;
77802;SDS011;66993;48.256;16.422;2023-07-16T02:05:14;9.0;;;6.3;;
77802;SDS011;66993;48.256;16.422;2023-07-16T02:10:14;11.4;;;6.0;;
77802;SDS011;66993;48.256;16.422;2023-07-16T02:15:16;10.8;;;6.5;;
77802;SDS011;66993;48.256;16.422;2023-07-16T02:20:17;8.8;;;6.5;;
77802;SDS011;66993;48.256;16.422;2023-07-16T02:25:18;10.8;;;6.9;;
77802;SDS011;66993;48.256;16.422;2023-07-16T02:30:19;8.5;;;6.7;;
77802;SDS011;66993;48.256;16.422;2023-07-16T02:35:21;9.4;;;6.7;;
77802;SDS011;66993;48.256;16.422;2023-07-16T02:40:22;8.3;;;7.1;;
77802;SDS011;66993;48.256;16.422;2023-07-16T02:45:23;11.9;;;7.6;;
77802;SDS011;66993;48.256;16.422;2023-07-16T02:50:25;10.5;;;7.8;;
77802;SDS011;66993;48.256;16.422;2023-07-16T02:55:26;9.9;;;8.1;;
77802;SDS011;66993;48.256;16.422;2023-07-16T03:00:27;13.6;;;9.5;;
77802;SDS011;66993;48.256;16.422;2023-07-16T03:05:28;13.3;;;10.1;;
77802;SDS011;66993;48.256;16.422;2023-07-16T03:10:30;12.5;;;10.7;;
77802;SDS011;66993;48.256;16.422;2023-07-16T03:15:31;13.2;;;10.7;;
77802;SDS011;66993;48.256;16.422;2023-07-16T03:20:32;14.6;;;12.2;;
77802;SDS011;66993;48.256;16.422;2023-07-16T03:25:34;16.3;;;12.1;;
77802;SDS011;66993;48.256;16.422;2023-07-16T03:30:35;16.1;;;12.5;;
77802;SDS011;66993;48.256;16.422;2023-07-16T03:35:36;15.0;;;12.0;;
77802;SDS011;66993;48.256;16.422;2023-07-16T03:40:38;15.5;;;12.0;;
77802;SDS011;66993;48.256;16.422;2023-07-16T03:45:39;16.6;;;12.6;;
77802;SDS011;66993;48.256;16.422;2023-07-16T03:50:40;16.5;;;14.1;;
77802;SDS011;66993;48.256;16.422;2023-07-16T03:55:42;18.0;;;14.3;;
77802;SDS011;66993;48.256;16.422;2023-07-16T04:00:43;17.6;;;15.1;;
77802;SDS011;66993;48.256;16.422;2023-07-16T04:05:44;20.1;;;17.9;;
77802;SDS011;66993;48.256;16.422;2023-07-16T04:10:45;20.6;;;18.3;;
77802;SDS011;66993;48.256;16.422;2023-07-16T04:15:47;20.0;;;17.7;;
77802;SDS011;66993;48.256;16.422;2023-07-16T04:20:48;20.2;;;17.8;;
77802;SDS011;66993;48.256;16.422;2023-07-16T04:25:51;20.2;;;17.8;;
77802;SDS011;66993;48.256;16.422;2023-07-16T04:30:51;20.3;;;18.2;;
77802;SDS011;66993;48.256;16.422;2023-07-16T04:35:52;20.7;;;18.3;;
77802;SDS011;66993;48.256;16.422;2023-07-16T04:40:53;19.5;;;17.4;;
77802;SDS011;66993;48.256;16.422;2023-07-16T04:45:54;20.0;;;18.0;;
77802;SDS011;66993;48.256;16.422;2023-07-16T04:50:56;19.7;;;17.1;;
77802;SDS011;66993;48.256;16.422;2023-07-16T04:55:57;20.4;;;18.2;;
77802;SDS011;66993;48.256;16.422;2023-07-16T05:00:58;17.3;;;15.3;;
77802;SDS011;66993;48.256;16.422;2023-07-16T05:06:00;15.3;;;13.2;;
77802;SDS011;66993;48.256;16.422;2023-07-16T05:11:02;15.1;;;12.1;;
77802;SDS011;66993;48.256;16.422;2023-07-16T05:16:02;13.5;;;10.4;;
77802;SDS011;66993;48.256;16.422;2023-07-16T05:21:05;13.5;;;9.8;;
77802;SDS011;66993;48.256;16.422;2023-07-16T05:26:05;11.0;;;7.3;;
77802;SDS011;66993;48.256;16.422;2023-07-16T05:31:06;9.0;;;6.1;;
77802;SDS011;66993;48.256;16.422;2023-07-16T05:36:07;8.4;;;6.2;;
77802;SDS011;66993;48.256;16.422;2023-07-16T05:41:09;10.2;;;5.7;;
77802;SDS011;66993;48.256;16.422;2023-07-16T05:46:10;9.4;;;6.1;;
77802;SDS011;66993;48.256;16.422;2023-07-16T05:51:11;8.6;;;6.1;;
77802;SDS011;66993;48.256;16.422;2023-07-16T05:56:13;7.1;;;5.5;;
77802;SDS011;66993;48.256;16.422;2023-07-16T06:01:14;8.8;;;5.9;;
77802;SDS011;66993;48.256;16.422;2023-07-16T06:06:16;9.5;;;5.6;;
77802;SDS011;66993;48.256;16.422;2023-07-16T06:11:16;9.6;;;5.9;;
77802;SDS011;66993;48.256;16.422;2023-07-16T06:16:18;8.9;;;5.6;;
77802;SDS011;66993;48.256;16.422;2023-07-16T06:21:19;8.5;;;5.6;;
77802;SDS011;66993;48.256;16.422;2023-07-16T06:26:22;8.8;;;5.6;;
77802;SDS011;66993;48.256;16.422;2023-07-16T06:31:22;9.5;;;5.9;;
77802;SDS011;66993;48.256;16.422;2023-07-16T06:36:23;7.8;;;5.9;;
77802;SDS011;66993;48.256;16.422;2023-07-16T06:41:24;8.9;;;5.8;;
77802;SDS011;66993;48.256;16.422;2023-07-16T06:46:26;10.9;;;5.7;;
77802;SDS011;66993;48.256;16.422;2023-07-16T06:51:27;8.5;;;5.7;;
77802;SDS011;66993;48.256;16.422;2023-07-16T06:56:28;7.1;;;5.3;;
77802;SDS011;66993;48.256;16.422;2023-07-16T07:01:29;7.8;;;5.7;;
77802;SDS011;66993;48.256;16.422;2023-07-16T07:06:31;8.9;;;5.6;;
77802;SDS011;66993;48.256;16.422;2023-07-16T07:11:32;7.7;;;5.1;;
77802;SDS011;66993;48.256;16.422;2023-07-16T07:16:33;10.3;;;5.1;;
77802;SDS011;66993;48.256;16.422;2023-07-16T07:21:34;8.9;;;5.2;;
77802;SDS011;66993;48.256;16.422;2023-07-16T07:26:36;9.1;;;5.2;;
77802;SDS011;66993;48.256;16.422;2023-07-16T07:31:37;8.5;;;5.0;;
77802;SDS011;66993;48.256;16.422;2023-07-16T07:36:38;8.8;;;4.3;;
77802;SDS011;66993;48.256;16.422;2023-07-16T07:41:40;7.1;;;4.0;;
77802;SDS011;66993;48.256;16.422;2023-07-16T07:46:41;7.3;;;3.9;;
77802;SDS011;66993;48.256;16.422;2023-07-16T07:51:42;7.9;;;3.7;;
77802;SDS011;66993;48.256;16.422;2023-07-16T07:56:45;7.5;;;3.6;;
77802;SDS011;66993;48.256;16.422;2023-07-16T08:01:45;5.6;;;3.3;;
77802;SDS011;66993;48.256;16.422;2023-07-16T08:06:46;5.7;;;2.9;;
77802;SDS011;66993;48.256;16.422;2023-07-16T08:11:47;7.1;;;2.8;;
77802;SDS011;66993;48.256;16.422;2023-07-16T08:16:48;9.0;;;3.3;;
77802;SDS011;66993;48.256;16.422;2023-07-16T08:21:50;5.2;;;2.8;;
77802;SDS011;66993;48.256;16.422;2023-07-16T08:26:51;6.3;;;2.6;;
77802;SDS011;66993;48.256;16.422;2023-07-16T08:31:52;6.4;;;2.9;;
77802;SDS011;66993;48.256;16.422;2023-07-16T08:36:53;4.5;;;2.3;;
77802;SDS011;66993;48.256;16.422;2023-07-16T08:41:55;5.0;;;2.4;;
77802;SDS011;66993;48.256;16.422;2023-07-16T08:46:56;5.8;;;2.6;;
77802;SDS011;66993;48.256;16.422;2023-07-16T08:51:57;5.6;;;2.5;;
77802;SDS011;66993;48.256;16.422;2023-07-16T08:56:58;4.6;;;2.8;;
77802;SDS011;66993;48.256;16.422;2023-07-16T09:02:01;3.6;;;2.3;;
77802;SDS011;66993;48.256;16.422;2023-07-16T09:07:01;4.9;;;2.4;;
77802;SDS011;66993;48.256;16.422;2023-07-16T09:12:02;4.5;;;2.6;;
77802;SDS011;66993;48.256;16.422;2023-07-16T09:17:04;7.7;;;2.5;;
77802;SDS011;66993;48.256;16.422;2023-07-16T09:22:05;5.5;;;2.6;;
77802;SDS011;66993;48.256;16.422;2023-07-16T09:27:06;4.9;;;2.4;;
77802;SDS011;66993;48.256;16.422;2023-07-16T09:32:08;4.9;;;2.9;;
77802;SDS011;66993;48.256;16.422;2023-07-16T09:37:08;5.0;;;2.5;;
77802;SDS011;66993;48.256;16.422;2023-07-16T09:42:10;5.5;;;2.3;;
77802;SDS011;66993;48.256;16.422;2023-07-16T09:47:11;4.8;;;2.6;;
77802;SDS011;66993;48.256;16.422;2023-07-16T09:52:12;3.8;;;2.2;;
77802;SDS011;66993;48.256;16.422;2023-07-16T09:57:13;5.1;;;2.5;;
77802;SDS011;66993;48.256;16.422;2023-07-16T10:02:15;4.5;;;2.9;;
77802;SDS011;66993;48.256;16.422;2023-07-16T10:07:19;5.6;;;2.5;;
77802;SDS011;66993;48.256;16.422;2023-07-16T10:12:18;4.6;;;2.7;;
77802;SDS011;66993;48.256;16.422;2023-07-16T10:17:19;4.4;;;2.3;;
77802;SDS011;66993;48.256;16.422;2023-07-16T10:22:31;4.1;;;2.3;;
77802;SDS011;66993;48.256;16.422;2023-07-16T10:27:27;5.4;;;2.8;;
77802;SDS011;66993;48.256;16.422;2023-07-16T10:32:25;4.1;;;2.4;;
77802;SDS011;66993;48.256;16.422;2023-07-16T10:37:24;4.5;;;2.8;;
77802;SDS011;66993;48.256;16.422;2023-07-16T10:42:25;4.0;;;2.4;;
77802;SDS011;66993;48.256;16.422;2023-07-16T10:47:29;3.3;;;2.4;;
77802;SDS011;66993;48.256;16.422;2023-07-16T10:52:27;3.9;;;2.5;;
77802;SDS011;66993;48.256;16.422;2023-07-16T10:57:29;4.1;;;2.5;;
77802;SDS011;66993;48.256;16.422;2023-07-16T11:02:30;4.5;;;2.5;;
77802;SDS011;66993;48.256;16.422;2023-07-16T11:07:31;3.8;;;2.2;;
77802;SDS011;66993;48.256;16.422;2023-07-16T11:12:33;4.0;;;2.4;;
77802;SDS011;66993;48.256;16.422;2023-07-16T11:17:36;4.5;;;2.3;;
77802;SDS011;66993;48.256;16.422;2023-07-16T11:22:37;4.7;;;2.2;;
77802;SDS011;66993;48.256;16.422;2023-07-16T11:27:36;4.6;;;2.2;;
77802;SDS011;66993;48.256;16.422;2023-07-16T11:32:41;4.2;;;2.3;;
77802;SDS011;66993;48.256;16.422;2023-07-16T11:37:39;5.0;;;2.2;;
77802;SDS011;66993;48.256;16.422;2023-07-16T11:42:41;4.6;;;2.2;;
77802;SDS011;66993;48.256;16.422;2023-07-16T11:47:41;4.0;;;2.0;;
77802;SDS011;66993;48.256;16.422;2023-07-16T11:52:43;10.7;;;2.2;;
77802;SDS011;66993;48.256;16.422;2023-07-16T11:57:44;3.3;;;1.9;;
77802;SDS011;66993;48.256;16.422;2023-07-16T12:02:46;3.4;;;1.7;;
77802;SDS011;66993;48.256;16.422;2023-07-16T12:07:46;4.3;;;2.3;;
77802;SDS011;66993;48.256;16.422;2023-07-16T12:12:48;4.1;;;1.9;;
77802;SDS011;66993;48.256;16.422;2023-07-16T12:17:49;3.4;;;2.1;;
77802;SDS011;66993;48.256;16.422;2023-07-16T12:22:50;4.6;;;2.4;;
77802;SDS011;66993;48.256;16.422;2023-07-16T12:27:51;5.7;;;2.3;;
77802;SDS011;66993;48.256;16.422;2023-07-16T12:32:54;3.9;;;2.4;;
77802;SDS011;66993;48.256;16.422;2023-07-16T12:37:54;4.3;;;2.0;;
77802;SDS011;66993;48.256;16.422;2023-07-16T12:42:56;5.9;;;2.5;;
77802;SDS011;66993;48.256;16.422;2023-07-16T12:47:56;4.5;;;2.1;;
77802;SDS011;66993;48.256;16.422;2023-07-16T12:52:58;3.7;;;2.3;;
77802;SDS011;66993;48.256;16.422;2023-07-16T12:57:59;5.2;;;2.5;;
77802;SDS011;66993;48.256;16.422;2023-07-16T13:03:00;4.3;;;2.1;;
77802;SDS011;66993;48.256;16.422;2023-07-16T13:08:01;4.0;;;1.9;;
77802;SDS011;66993;48.256;16.422;2023-07-16T13:13:03;2.7;;;2.0;;
77802;SDS011;66993;48.256;16.422;2023-07-16T13:18:04;3.6;;;2.3;;
77802;SDS011;66993;48.256;16.422;2023-07-16T13:23:05;3.7;;;2.1;;
77802;SDS011;66993;48.256;16.422;2023-07-16T13:28:07;4.0;;;2.1;;
77802;SDS011;66993;48.256;16.422;2023-07-16T13:33:08;3.4;;;2.2;;
77802;SDS011;66993;48.256;16.422;2023-07-16T13:38:09;3.0;;;1.8;;
77802;SDS011;66993;48.256;16.422;2023-07-16T13:43:10;3.5;;;1.9;;
77802;SDS011;66993;48.256;16.422;2023-07-16T13:48:12;3.0;;;1.7;;
77802;SDS011;66993;48.256;16.422;2023-07-16T13:53:13;5.9;;;1.9;;
77802;SDS011;66993;48.256;16.422;2023-07-16T13:58:14;4.1;;;1.9;;
77802;SDS011;66993;48.256;16.422;2023-07-16T14:03:16;3.8;;;1.8;;
77802;SDS011;66993;48.256;16.422;2023-07-16T14:08:17;4.5;;;1.9;;
77802;SDS011;66993;48.256;16.422;2023-07-16T14:13:18;3.0;;;1.8;;
77802;SDS011;66993;48.256;16.422;2023-07-16T14:18:20;5.0;;;1.9;;
77802;SDS011;66993;48.256;16.422;2023-07-16T14:23:21;3.0;;;1.9;;
77802;SDS011;66993;48.256;16.422;2023-07-16T14:28:22;3.0;;;1.9;;
77802;SDS011;66993;48.256;16.422;2023-07-16T14:33:23;3.6;;;1.9;;
77802;SDS011;66993;48.256;16.422;2023-07-16T14:38:25;3.6;;;1.8;;
77802;SDS011;66993;48.256;16.422;2023-07-16T14:43:26;4.7;;;1.9;;
77802;SDS011;66993;48.256;16.422;2023-07-16T14:48:28;3.7;;;1.7;;
77802;SDS011;66993;48.256;16.422;2023-07-16T14:53:28;2.9;;;1.7;;
77802;SDS011;66993;48.256;16.422;2023-07-16T14:58:30;3.3;;;1.7;;
77802;SDS011;66993;48.256;16.422;2023-07-16T15:03:31;3.8;;;1.9;;
77802;SDS011;66993;48.256;16.422;2023-07-16T15:08:32;4.1;;;1.8;;
77802;SDS011;66993;48.256;16.422;2023-07-16T15:13:33;3.7;;;1.7;;
77802;SDS011;66993;48.256;16.422;2023-07-16T15:18:34;3.3;;;1.7;;
77802;SDS011;66993;48.256;16.422;2023-07-16T15:23:36;3.6;;;2.0;;
77802;SDS011;66993;48.256;16.422;2023-07-16T15:28:37;3.2;;;1.8;;
77802;SDS011;66993;48.256;16.422;2023-07-16T15:33:39;3.1;;;1.7;;
77802;SDS011;66993;48.256;16.422;2023-07-16T15:38:39;2.8;;;1.7;;
77802;SDS011;66993;48.256;16.422;2023-07-16T15:43:41;3.5;;;2.0;;
77802;SDS011;66993;48.256;16.422;2023-07-16T15:48:42;4.2;;;1.7;;
77802;SDS011;66993;48.256;16.422;2023-07-16T15:53:43;3.3;;;1.8;;
77802;SDS011;66993;48.256;16.422;2023-07-16T15:58:44;7.3;;;2.3;;
77802;SDS011;66993;48.256;16.422;2023-07-16T16:03:46;2.6;;;1.8;;
77802;SDS011;66993;48.256;16.422;2023-07-16T16:08:48;3.7;;;1.6;;
77802;SDS011;66993;48.256;16.422;2023-07-16T16:13:48;3.1;;;1.7;;
77802;SDS011;66993;48.256;16.422;2023-07-16T16:18:50;4.0;;;1.8;;
77802;SDS011;66993;48.256;16.422;2023-07-16T16:23:51;2.9;;;1.8;;
77802;SDS011;66993;48.256;16.422;2023-07-16T16:28:52;2.7;;;1.8;;
77802;SDS011;66993;48.256;16.422;2023-07-16T16:33:53;3.2;;;1.8;;
77802;SDS011;66993;48.256;16.422;2023-07-16T16:38:55;4.2;;;1.9;;
77802;SDS011;66993;48.256;16.422;2023-07-16T16:43:56;3.2;;;1.9;;
77802;SDS011;66993;48.256;16.422;2023-07-16T16:48:57;3.4;;;1.8;;
77802;SDS011;66993;48.256;16.422;2023-07-16T16:53:58;3.6;;;1.8;;
77802;SDS011;66993;48.256;16.422;2023-07-16T16:59:00;2.5;;;1.6;;
77802;SDS011;66993;48.256;16.422;2023-07-16T17:04:01;4.1;;;1.9;;
77802;SDS011;66993;48.256;16.422;2023-07-16T17:09:02;3.9;;;2.0;;
77802;SDS011;66993;48.256;16.422;2023-07-16T17:14:03;4.2;;;1.9;;
77802;SDS011;66993;48.256;16.422;2023-07-16T17:19:04;2.9;;;1.6;;
77802;SDS011;66993;48.256;16.422;2023-07-16T17:24:05;3.6;;;1.8;;
77802;SDS011;66993;48.256;16.422;2023-07-16T17:29:07;3.6;;;2.1;;
77802;SDS011;66993;48.256;16.422;2023-07-16T17:34:08;3.5;;;2.0;;
77802;SDS011;66993;48.256;16.422;2023-07-16T17:39:09;4.5;;;2.2;;
77802;SDS011;66993;48.256;16.422;2023-07-16T17:44:10;3.5;;;2.1;;
77802;SDS011;66993;48.256;16.422;2023-07-16T17:49:12;4.5;;;2.1;;
77802;SDS011;66993;48.256;16.422;2023-07-16T17:54:13;3.2;;;1.8;;
77802;SDS011;66993;48.256;16.422;2023-07-16T17:59:14;5.6;;;3.0;;
77802;SDS011;66993;48.256;16.422;2023-07-16T18:04:15;4.9;;;2.6;;
77802;SDS011;66993;48.256;16.422;2023-07-16T18:09:16;5.5;;;2.7;;
77802;SDS011;66993;48.256;16.422;2023-07-16T18:14:17;4.8;;;2.3;;
77802;SDS011;66993;48.256;16.422;2023-07-16T18:19:19;3.9;;;2.4;;
77802;SDS011;66993;48.256;16.422;2023-07-16T18:24:20;4.7;;;2.6;;
77802;SDS011;66993;48.256;16.422;2023-07-16T18:29:21;5.0;;;2.7;;
77802;SDS011;66993;48.256;16.422;2023-07-16T18:34:22;5.4;;;2.6;;
77802;SDS011;66993;48.256;16.422;2023-07-16T18:39:23;5.1;;;2.9;;
77802;SDS011;66993;48.256;16.422;2023-07-16T18:44:25;5.1;;;2.9;;
77802;SDS011;66993;48.256;16.422;2023-07-16T18:49:26;5.0;;;2.9;;
77802;SDS011;66993;48.256;16.422;2023-07-16T18:54:27;5.3;;;2.7;;
77802;SDS011;66993;48.256;16.422;2023-07-16T18:59:28;5.9;;;2.7;;
77802;SDS011;66993;48.256;16.422;2023-07-16T19:04:29;5.2;;;2.8;;
77802;SDS011;66993;48.256;16.422;2023-07-16T19:09:31;6.5;;;2.9;;
77802;SDS011;66993;48.256;16.422;2023-07-16T19:14:32;5.5;;;3.1;;
77802;SDS011;66993;48.256;16.422;2023-07-16T19:19:33;4.7;;;3.0;;
77802;SDS011;66993;48.256;16.422;2023-07-16T19:24:34;5.2;;;3.0;;
77802;SDS011;66993;48.256;16.422;2023-07-16T19:29:35;5.9;;;3.0;;
77802;SDS011;66993;48.256;16.422;2023-07-16T19:34:37;6.7;;;3.4;;
77802;SDS011;66993;48.256;16.422;2023-07-16T19:39:38;9.2;;;4.1;;
77802;SDS011;66993;48.256;16.422;2023-07-16T19:44:39;8.5;;;3.5;;
77802;SDS011;66993;48.256;16.422;2023-07-16T19:49:40;6.4;;;3.8;;
77802;SDS011;66993;48.256;16.422;2023-07-16T19:54:42;6.2;;;3.7;;
77802;SDS011;66993;48.256;16.422;2023-07-16T19:59:43;5.6;;;3.2;;
77802;SDS011;66993;48.256;16.422;2023-07-16T20:04:44;6.1;;;3.7;;
77802;SDS011;66993;48.256;16.422;2023-07-16T20:09:45;7.3;;;3.7;;
77802;SDS011;66993;48.256;16.422;2023-07-16T20:14:47;8.3;;;3.9;;
77802;SDS011;66993;48.256;16.422;2023-07-16T20:19:47;6.8;;;3.5;;
77802;SDS011;66993;48.256;16.422;2023-07-16T20:24:49;7.3;;;4.0;;
77802;SDS011;66993;48.256;16.422;2023-07-16T20:29:50;6.9;;;4.1;;
77802;SDS011;66993;48.256;16.422;2023-07-16T20:34:51;7.5;;;3.9;;
77802;SDS011;66993;48.256;16.422;2023-07-16T20:39:52;7.4;;;4.4;;
77802;SDS011;66993;48.256;16.422;2023-07-16T20:49:55;8.1;;;4.8;;
77802;SDS011;66993;48.256;16.422;2023-07-16T20:54:56;6.9;;;4.4;;
77802;SDS011;66993;48.256;16.422;2023-07-16T20:59:57;5.5;;;4.0;;
77802;SDS011;66993;48.256;16.422;2023-07-16T21:04:58;6.5;;;4.4;;
77802;SDS011;66993;48.256;16.422;2023-07-16T21:09:59;6.5;;;4.0;;
77802;SDS011;66993;48.256;16.422;2023-07-16T21:15:00;7.1;;;4.2;;
77802;SDS011;66993;48.256;16.422;2023-07-16T21:20:02;8.8;;;4.2;;
77802;SDS011;66993;48.256;16.422;2023-07-16T21:25:03;6.9;;;4.4;;
77802;SDS011;66993;48.256;16.422;2023-07-16T21:30:04;7.4;;;4.2;;
77802;SDS011;66993;48.256;16.422;2023-07-16T21:35:06;5.8;;;3.9;;
77802;SDS011;66993;48.256;16.422;2023-07-16T21:40:07;9.2;;;4.6;;
77802;SDS011;66993;48.256;16.422;2023-07-16T21:45:08;6.4;;;4.1;;
77802;SDS011;66993;48.256;16.422;2023-07-16T21:50:09;6.4;;;4.2;;
77802;SDS011;66993;48.256;16.422;2023-07-16T21:55:10;7.4;;;4.0;;
77802;SDS011;66993;48.256;16.422;2023-07-16T22:00:11;7.5;;;3.9;;
77802;SDS011;66993;48.256;16.422;2023-07-16T22:05:12;6.3;;;4.0;;
77802;SDS011;66993;48.256;16.422;2023-07-16T22:10:14;7.9;;;5.4;;
77802;SDS011;66993;48.256;16.422;2023-07-16T22:15:14;6.0;;;4.4;;
77802;SDS011;66993;48.256;16.422;2023-07-16T22:20:16;5.6;;;3.9;;
77802;SDS011;66993;48.256;16.422;2023-07-16T22:25:17;5.3;;;3.6;;
77802;SDS011;66993;48.256;16.422;2023-07-16T22:30:18;5.6;;;4.5;;
77802;SDS011;66993;48.256;16.422;2023-07-16T22:35:20;6.5;;;3.9;;
77802;SDS011;66993;48.256;16.422;2023-07-16T22:40:20;5.5;;;3.5;;
77802;SDS011;66993;48.256;16.422;2023-07-16T22:45:22;7.5;;;3.6;;
77802;SDS011;66993;48.256;16.422;2023-07-16T22:50:23;6.2;;;3.6;;
77802;SDS011;66993;48.256;16.422;2023-07-16T22:55:24;4.9;;;3.5;;
77802;SDS011;66993;48.256;16.422;2023-07-16T23:00:25;5.5;;;3.5;;
77802;SDS011;66993;48.256;16.422;2023-07-16T23:05:26;5.5;;;3.7;;
77802;SDS011;66993;48.256;16.422;2023-07-16T23:10:28;6.7;;;3.9;;
77802;SDS011;66993;48.256;16.422;2023-07-16T23:15:29;6.0;;;3.1;;
77802;SDS011;66993;48.256;16.422;2023-07-16T23:20:30;5.2;;;3.5;;
77802;SDS011;66993;48.256;16.422;2023-07-16T23:25:31;6.1;;;3.7;;
77802;SDS011;66993;48.256;16.422;2023-07-16T23:30:33;6.8;;;3.7;;
77802;SDS011;66993;48.256;16.422;2023-07-16T23:35:34;5.5;;;3.4;;
77802;SDS011;66993;48.256;16.422;2023-07-16T23:40:35;7.4;;;3.9;;
77802;SDS011;66993;48.256;16.422;2023-07-16T23:45:36;7.1;;;3.9;;
77802;SDS011;66993;48.256;16.422;2023-07-16T23:50:37;5.8;;;3.6;;
77802;SDS011;66993;48.256;16.422;2023-07-16T23:55:38;6.6;;;3.9;;
